Time;durP1;ratioP1;P1;durP2;ratioP2;P2;SDS_P1;SDS_P2;PMS_P1;PMS_P2;Temp;Humidity;BMP_temperature;BMP_pressure;BME280_temperature;BME280_humidity;BME280_pressure;Samples;Min_cycle;Max_cycle;Signal;HPM_P1;HPM_P2
2023/08/14 08:47:44;;;;;;;6.10;2.08;;;;;;;20.05;100.00;101252.91;5089786;27;20965;-66
2023/08/14 08:50:10;;;;;;;6.35;2.47;;;;;;;20.08;100.00;101250.44;5086112;28;20479;-69
2023/08/14 08:52:35;;;;;;;4.88;2.15;;;;;;;20.22;100.00;101245.16;5049969;28;20040;-68
2023/08/14 08:55:02;;;;;;;13.02;2.63;;;;;;;20.28;100.00;101243.22;5049753;28;20423;-69
2023/08/14 08:57:28;;;;;;;3.90;1.90;;;;;;;20.31;100.00;101242.66;5049837;28;20040;-71
2023/08/14 08:59:57;;;;;;;6.50;2.05;;;;;;;20.39;100.00;101238.50;5066353;28;20531;-67
2023/08/14 09:02:22;;;;;;;6.55;2.20;;;;;;;20.48;100.00;101234.88;5051473;28;20094;-68
2023/08/14 09:04:47;;;;;;;7.85;2.13;;;;;;;20.56;100.00;101230.69;5049909;28;20029;-69
2023/08/14 09:07:14;;;;;;;5.95;1.95;;;;;;;20.75;100.00;101238.34;5049639;28;20025;-68
2023/08/14 09:09:39;;;;;;;6.63;2.25;;;;;;;20.76;100.00;101239.97;5048485;28;20120;-68
2023/08/14 09:12:04;;;;;;;10.63;2.15;;;;;;;20.77;100.00;101241.63;5049225;28;20112;-70
2023/08/14 09:14:30;;;;;;;5.88;2.28;;;;;;;20.78;100.00;101237.78;5049221;28;20568;-67
2023/08/14 09:16:57;;;;;;;5.88;2.03;;;;;;;20.87;96.81;101236.88;5059411;28;20025;-70
2023/08/14 09:19:23;;;;;;;5.38;2.03;;;;;;;21.02;100.00;101238.69;5029664;28;20040;-68
2023/08/14 09:21:48;;;;;;;6.43;2.10;;;;;;;21.05;100.00;101237.31;5028992;28;20026;-66
2023/08/14 09:24:14;;;;;;;10.10;2.40;;;;;;;21.04;90.32;101241.97;5029747;28;20037;-71
2023/08/14 09:26:43;;;;;;;4.13;1.80;;;;;;;21.16;94.74;101249.88;5028103;28;20511;-72
2023/08/14 09:29:11;;;;;;;6.57;2.20;;;;;;;21.20;87.91;101245.44;5029388;28;20053;-67
2023/08/14 09:31:36;;;;;;;6.05;1.92;;;;;;;21.27;86.82;101249.81;5031452;28;20036;-66
2023/08/14 09:34:02;;;;;;;4.75;1.80;;;;;;;21.37;89.65;101249.72;5028407;28;20029;-69
2023/08/14 09:36:34;;;;;;;5.43;1.80;;;;;;;21.41;88.19;101265.38;5029109;28;20072;-68
2023/08/14 09:39:00;;;;;;;6.85;1.92;;;;;;;21.46;86.60;101260.94;5028486;28;20025;-70
2023/08/14 09:41:26;;;;;;;6.32;1.80;;;;;;;21.49;80.60;101265.88;5028782;28;20048;-67
2023/08/14 09:43:51;;;;;;;6.28;2.10;;;;;;;21.50;86.26;101265.63;5028649;28;20465;-67
2023/08/14 09:46:19;;;;;;;6.88;2.00;;;;;;;21.70;84.12;101267.34;5045008;28;20040;-66
2023/08/14 09:48:48;;;;;;;5.53;1.90;;;;;;;21.74;81.06;101265.66;5051586;28;20083;-67
2023/08/14 09:51:18;;;;;;;8.20;1.63;;;;;;;21.84;74.41;101266.69;5043289;28;20536;-66
2023/08/14 09:53:48;;;;;;;7.60;1.80;;;;;;;21.84;71.50;101259.22;5027643;28;20025;-66
2023/08/14 09:56:16;;;;;;;7.40;2.25;;;;;;;21.85;69.22;101255.38;5033037;28;20025;-67
2023/08/14 09:58:41;;;;;;;4.65;2.10;;;;;;;21.73;72.61;101247.50;5027468;28;20065;-66
2023/08/14 10:01:07;;;;;;;4.95;2.03;;;;;;;21.84;71.45;101247.38;5017720;28;20429;-66
2023/08/14 10:03:34;;;;;;;5.80;1.92;;;;;;;21.93;71.73;101237.38;5035055;28;20033;-67
2023/08/14 10:06:02;;;;;;;5.90;2.08;;;;;;;21.96;71.02;101242.28;5025178;28;20092;-66
2023/08/14 10:08:31;;;;;;;8.52;2.35;;;;;;;21.97;70.62;101243.09;5031822;28;20112;-66
2023/08/14 10:10:57;;;;;;;6.05;1.92;;;;;;;22.09;74.54;101224.25;5030024;28;20080;-66
2023/08/14 10:13:25;;;;;;;4.82;1.90;;;;;;;22.11;73.14;101222.81;5035049;28;20048;-67
2023/08/14 10:15:55;;;;;;;4.47;1.90;;;;;;;22.28;68.03;101225.13;5034076;28;20112;-66
2023/08/14 10:18:22;;;;;;;6.47;2.15;;;;;;;22.26;66.33;101216.31;5034896;28;20025;-67
2023/08/14 10:20:50;;;;;;;5.55;1.95;;;;;;;22.26;63.26;101209.97;5032585;28;20053;-69
2023/08/14 10:23:16;;;;;;;5.22;1.90;;;;;;;22.28;64.26;101204.97;5030306;28;20029;-71
2023/08/14 10:25:46;;;;;;;6.93;1.83;;;;;;;22.32;66.89;101189.53;5028902;28;20022;-70
2023/08/14 10:28:11;;;;;;;6.85;1.98;;;;;;;22.48;70.26;101190.97;5034912;28;20033;-66
2023/08/14 10:30:38;;;;;;;3.95;1.90;;;;;;;22.52;66.01;101193.13;5034829;28;20025;-68
2023/08/14 10:33:05;;;;;;;3.60;1.80;;;;;;;22.52;64.52;101187.59;5034631;28;20347;-70
2023/08/14 10:35:43;;;;;;;5.22;1.92;;;;;;;22.58;67.96;101186.41;5034813;28;20029;-67
2023/08/14 10:38:09;;;;;;;3.85;1.65;;;;;;;22.71;69.21;101182.91;5031080;28;20462;-68
2023/08/14 10:40:34;;;;;;;5.72;1.92;;;;;;;22.89;65.73;101174.91;5018220;28;20030;-68
2023/08/14 10:43:00;;;;;;;5.50;1.92;;;;;;;22.92;65.17;101177.09;5033625;28;20087;-69
2023/08/14 10:45:27;;;;;;;6.13;2.00;;;;;;;22.98;66.39;101179.44;5034345;28;20453;-70
2023/08/14 10:47:58;;;;;;;4.38;1.88;;;;;;;23.20;68.38;101177.19;5027284;28;20025;-69
2023/08/14 10:50:25;;;;;;;4.45;1.80;;;;;;;23.17;64.53;101179.44;5034524;28;20056;-69
2023/08/14 10:52:53;;;;;;;6.75;2.00;;;;;;;23.18;64.77;101183.81;5034504;28;20025;-69
2023/08/14 10:55:24;;;;;;;6.18;1.92;;;;;;;23.28;62.03;101187.53;5029499;28;20045;-65
2023/08/14 10:57:50;;;;;;;4.88;2.03;;;;;;;23.46;65.86;101181.16;5027069;28;20146;-69
2023/08/14 11:00:21;;;;;;;5.47;1.92;;;;;;;23.40;60.45;101178.75;5020772;28;20453;-68
2023/08/14 11:02:55;;;;;;;5.28;1.90;;;;;;;23.38;59.96;101183.78;5031396;28;20100;-69
2023/08/14 11:05:20;;;;;;;5.70;1.85;;;;;;;23.30;60.39;101188.88;5034177;28;20114;-69
2023/08/14 11:08:10;;;;;;;8.45;1.92;;;;;;;23.49;66.94;101191.59;5032907;28;20138;-66
2023/08/14 11:10:36;;;;;;;4.38;1.80;;;;;;;23.51;60.20;101189.31;5027693;28;20068;-68
2023/08/14 11:13:08;;;;;;;4.88;1.80;;;;;;;23.54;59.44;101197.00;5030001;28;20041;-67
2023/08/14 11:15:35;;;;;;;5.32;2.10;;;;;;;23.70;65.68;101196.72;5012872;28;20036;-64
2023/08/14 11:18:02;;;;;;;5.10;2.15;;;;;;;23.73;62.74;101190.56;5012652;28;20022;-69
2023/08/14 11:20:28;;;;;;;5.38;2.00;;;;;;;23.80;63.21;101181.88;5014096;28;20034;-66
2023/08/14 11:22:54;;;;;;;6.90;2.03;;;;;;;23.85;60.32;101185.41;5013597;28;20026;-66
2023/08/14 11:25:20;;;;;;;4.75;1.58;;;;;;;23.94;61.84;101181.91;5014066;28;20040;-65
2023/08/14 11:27:50;;;;;;;4.38;1.90;;;;;;;24.10;61.46;101177.72;5014030;28;20053;-68
2023/08/14 11:30:17;;;;;;;5.10;1.90;;;;;;;24.21;62.01;101178.31;5013505;28;20028;-69
2023/08/14 11:32:42;;;;;;;5.03;1.92;;;;;;;24.22;58.42;101169.69;5014001;28;20088;-67
2023/08/14 11:35:09;;;;;;;6.05;1.90;;;;;;;24.26;61.69;101164.34;5013300;28;20034;-68
2023/08/14 11:37:34;;;;;;;6.75;1.80;;;;;;;24.27;58.63;101159.66;5013850;28;20033;-67
2023/08/14 11:40:04;;;;;;;4.90;1.88;;;;;;;24.21;55.78;101181.06;5013598;28;20017;-65
2023/08/14 11:42:29;;;;;;;4.88;1.80;;;;;;;24.23;56.64;101176.03;5013780;28;20026;-67
2023/08/14 11:44:55;;;;;;;5.20;2.20;;;;;;;24.20;56.15;101171.97;5013496;28;20405;-66
2023/08/14 11:47:21;;;;;;;6.93;1.83;;;;;;;24.38;58.98;101163.81;5013264;28;20820;-66
2023/08/14 11:49:49;;;;;;;5.00;1.92;;;;;;;24.42;57.21;101165.66;5012354;28;20113;-67
2023/08/14 11:52:15;;;;;;;3.88;1.67;;;;;;;24.33;53.82;101170.28;5011836;28;20036;-67
2023/08/14 11:54:40;;;;;;;4.28;1.85;;;;;;;24.30;53.66;101170.09;5013543;28;20025;-67
2023/08/14 11:57:07;;;;;;;5.20;1.67;;;;;;;24.34;55.76;101162.84;5013282;28;20025;-69
2023/08/14 11:59:32;;;;;;;7.63;1.80;;;;;;;24.45;56.31;101167.00;5013198;28;20039;-66
2023/08/14 12:01:58;;;;;;;6.80;2.00;;;;;;;24.60;58.74;101163.09;5016151;28;20408;-69
2023/08/14 12:04:23;;;;;;;5.22;2.42;;;;;;;24.71;54.02;101147.84;5013752;28;20084;-68
2023/08/14 12:06:48;;;;;;;3.83;1.70;;;;;;;24.87;54.86;101156.63;5013413;28;20026;-66
2023/08/14 12:09:14;;;;;;;9.38;1.98;;;;;;;24.81;52.28;101157.06;5012864;28;20056;-67
2023/08/14 12:11:39;;;;;;;4.60;1.85;;;;;;;24.91;53.81;101149.31;5013291;28;20113;-69
2023/08/14 12:14:07;;;;;;;4.03;1.60;;;;;;;24.93;52.26;101151.78;5027328;28;20048;-68
2023/08/14 12:16:36;;;;;;;4.60;1.63;;;;;;;25.11;53.94;101142.44;5016027;28;20091;-66
2023/08/14 12:19:06;;;;;;;5.00;1.60;;;;;;;25.22;51.06;101143.00;5012931;28;20022;-69
2023/08/14 12:21:31;;;;;;;5.47;1.85;;;;;;;25.38;50.97;101140.66;5012843;28;20037;-67
2023/08/14 12:23:57;;;;;;;5.80;1.70;;;;;;;25.45;50.49;101138.25;5013153;28;20026;-66
2023/08/14 12:26:22;;;;;;;4.22;1.52;;;;;;;25.50;50.64;101142.84;5011730;28;20029;-66
2023/08/14 12:28:48;;;;;;;5.70;2.05;;;;;;;25.33;48.75;101142.75;5013062;28;20022;-65
2023/08/14 12:31:14;;;;;;;5.10;1.80;;;;;;;25.33;48.48;101139.97;5012804;28;20118;-66
2023/08/14 12:33:42;;;;;;;5.32;1.98;;;;;;;25.54;51.65;101138.28;5015223;28;20104;-66
2023/08/14 12:36:10;;;;;;;6.50;1.95;;;;;;;25.68;49.62;101137.34;5015424;28;20024;-67
2023/08/14 12:38:36;;;;;;;6.25;1.80;;;;;;;25.67;49.42;101133.78;5032679;28;20368;-69
2023/08/14 12:41:01;;;;;;;4.22;1.80;;;;;;;25.62;49.25;101131.13;5025820;28;20026;-68
2023/08/14 12:43:27;;;;;;;5.43;2.03;;;;;;;25.76;49.52;101131.03;5028806;28;20341;-68
2023/08/14 12:45:52;;;;;;;6.53;1.50;;;;;;;25.96;50.50;101133.19;5040642;28;20048;-67
2023/08/14 12:48:17;;;;;;;5.65;2.20;;;;;;;25.90;49.20;101128.13;5041932;28;20021;-66
2023/08/14 12:50:42;;;;;;;4.88;1.60;;;;;;;25.98;48.36;101127.31;5042217;28;20044;-66
2023/08/14 12:53:12;;;;;;;5.05;1.98;;;;;;;26.06;47.80;101128.50;5012581;28;20030;-66
2023/08/14 12:55:37;;;;;;;4.03;1.50;;;;;;;25.99;47.55;101121.47;5012799;28;20025;-66
2023/08/14 12:58:03;;;;;;;6.82;2.00;;;;;;;26.08;47.95;101118.72;5019570;28;21403;-66
2023/08/14 13:00:28;;;;;;;5.20;1.90;;;;;;;26.23;50.72;101102.78;5026970;28;20033;-66
2023/08/14 13:02:53;;;;;;;3.33;1.70;;;;;;;26.20;47.93;101098.69;5027608;28;20080;-69
2023/08/14 13:05:19;;;;;;;4.65;1.70;;;;;;;26.19;47.60;101094.25;5029103;28;20029;-68
2023/08/14 13:07:44;;;;;;;10.55;1.80;;;;;;;26.27;49.95;101096.25;5032060;28;20025;-72
2023/08/14 13:10:09;;;;;;;5.07;2.10;;;;;;;26.18;48.03;101096.22;5023515;28;20022;-67
2023/08/14 13:12:35;;;;;;;6.93;1.90;;;;;;;26.37;49.71;101100.63;5026434;28;20084;-67
2023/08/14 13:15:00;;;;;;;6.40;1.92;;;;;;;26.57;49.20;101098.34;5023624;28;20053;-67
2023/08/14 13:17:25;;;;;;;5.10;1.75;;;;;;;26.52;48.25;101091.00;5020891;28;20029;-67
2023/08/14 13:19:52;;;;;;;3.58;1.77;;;;;;;26.45;46.74;101090.69;5010675;28;20030;-67
2023/08/14 13:22:17;;;;;;;5.95;1.70;;;;;;;26.58;47.69;101086.09;5012243;28;20113;-66
2023/08/14 13:24:42;;;;;;;5.75;2.10;;;;;;;26.58;46.46;101073.03;5012488;28;20430;-68
2023/08/14 13:27:08;;;;;;;5.43;1.80;;;;;;;26.65;48.17;101073.38;5012256;28;20505;-67
2023/08/14 13:29:33;;;;;;;4.05;1.67;;;;;;;26.75;46.10;101074.19;5032060;28;20018;-68
2023/08/14 13:31:58;;;;;;;4.68;2.17;;;;;;;26.80;48.54;101057.34;5022874;28;20068;-67
2023/08/14 13:34:24;;;;;;;5.93;1.55;;;;;;;26.97;46.50;101054.53;5015915;28;20022;-67
2023/08/14 13:36:49;;;;;;;5.95;2.03;;;;;;;26.78;45.19;101048.53;5028660;28;20041;-71
2023/08/14 13:39:16;;;;;;;6.07;1.98;;;;;;;26.83;46.66;101040.06;5025179;28;20044;-65
2023/08/14 13:41:41;;;;;;;5.20;1.80;;;;;;;26.94;46.11;101046.88;5015752;28;20030;-67
2023/08/14 13:44:07;;;;;;;5.88;1.80;;;;;;;27.14;48.13;101050.06;5016008;28;20026;-68
2023/08/14 13:46:32;;;;;;;4.57;1.80;;;;;;;27.29;47.40;101035.59;5015792;28;20073;-67
2023/08/14 13:48:57;;;;;;;6.10;1.83;;;;;;;27.34;47.17;101031.84;5015846;28;20018;-67
2023/08/14 13:51:23;;;;;;;3.40;1.67;;;;;;;27.60;46.88;101034.50;5015436;28;20033;-67
2023/08/14 13:53:48;;;;;;;4.75;2.08;;;;;;;27.66;45.91;101027.59;5015319;28;20080;-67
2023/08/14 13:56:13;;;;;;;4.63;1.90;;;;;;;27.63;45.51;101022.72;5015814;28;20109;-67
2023/08/14 13:58:39;;;;;;;4.70;1.52;;;;;;;27.73;45.06;101016.75;5023733;28;20029;-67
2023/08/14 14:01:04;;;;;;;4.43;1.67;;;;;;;27.66;45.04;101026.75;5031684;28;20080;-67
2023/08/14 14:03:29;;;;;;;4.70;1.75;;;;;;;27.72;43.79;101026.25;5017628;28;20486;-67
2023/08/14 14:05:55;;;;;;;5.85;1.98;;;;;;;27.84;45.37;101028.28;5035263;28;20029;-68
2023/08/14 14:08:20;;;;;;;6.90;1.75;;;;;;;27.77;46.48;101023.25;5034974;28;20033;-69
2023/08/14 14:10:45;;;;;;;5.15;2.10;;;;;;;27.80;43.31;101020.97;5033321;28;20033;-67
2023/08/14 14:13:11;;;;;;;5.57;1.85;;;;;;;27.82;44.68;101030.56;5035637;28;20463;-67
2023/08/14 14:15:36;;;;;;;6.22;1.92;;;;;;;27.82;44.94;101030.56;5034779;28;20026;-68
2023/08/14 14:18:02;;;;;;;4.75;1.80;;;;;;;27.88;44.09;101028.41;5036742;28;20059;-67
2023/08/14 14:20:29;;;;;;;5.30;1.88;;;;;;;27.93;44.84;101020.69;5045717;28;20040;-67
2023/08/14 14:22:54;;;;;;;5.53;1.88;;;;;;;27.97;44.66;101006.94;5044241;28;20078;-69
2023/08/14 14:25:19;;;;;;;7.82;2.30;;;;;;;27.95;45.92;101012.00;5035205;28;20215;-68
2023/08/14 14:27:45;;;;;;;5.60;1.80;;;;;;;28.18;44.01;101015.25;5024931;28;20041;-70
2023/08/14 14:30:10;;;;;;;9.57;2.22;;;;;;;28.29;44.13;101010.09;5034457;28;20048;-68
2023/08/14 14:32:36;;;;;;;4.85;1.60;;;;;;;28.24;42.53;101013.09;5035000;28;20491;-71
2023/08/14 14:35:02;;;;;;;4.82;2.00;;;;;;;28.33;44.52;101004.66;5034443;28;20022;-68
2023/08/14 14:37:28;;;;;;;4.88;1.63;;;;;;;28.41;43.44;100996.22;5034838;28;20033;-68
2023/08/14 14:39:53;;;;;;;4.43;1.65;;;;;;;28.52;42.87;100991.03;5034783;28;20072;-69
2023/08/14 14:42:19;;;;;;;4.43;1.88;;;;;;;28.61;40.53;100997.34;5026935;28;20025;-68
2023/08/14 14:44:46;;;;;;;4.75;1.90;;;;;;;28.95;40.91;101003.66;5019140;28;20113;-70
2023/08/14 14:47:12;;;;;;;6.50;1.77;;;;;;;29.58;39.82;100996.13;5014191;28;20038;-68
2023/08/14 14:49:37;;;;;;;10.57;2.47;;;;;;;30.21;39.13;101002.00;5015094;28;20518;-72
2023/08/14 14:52:03;;;;;;;5.80;1.80;;;;;;;30.72;37.52;100993.03;5014505;28;20477;-69
2023/08/14 14:54:28;;;;;;;4.72;1.60;;;;;;;30.83;37.65;100996.09;5014666;28;20275;-72
2023/08/14 14:56:53;;;;;;;5.82;1.70;;;;;;;31.05;37.19;100991.03;5014635;28;20446;-70
2023/08/14 14:59:19;;;;;;;4.43;1.80;;;;;;;31.13;37.28;100990.03;5014525;28;20028;-75
2023/08/14 15:01:44;;;;;;;4.78;1.85;;;;;;;31.28;36.47;100989.22;5028985;28;20389;-69
2023/08/14 15:04:09;;;;;;;3.30;1.50;;;;;;;31.40;36.96;100993.06;5030891;28;20037;-72
2023/08/14 15:06:35;;;;;;;4.90;1.80;;;;;;;31.60;37.02;100993.94;5032411;28;20108;-67
2023/08/14 15:09:00;;;;;;;3.60;1.60;;;;;;;31.88;35.28;100985.34;5034228;28;20396;-73
2023/08/14 15:11:25;;;;;;;3.63;1.60;;;;;;;32.04;37.41;100990.06;5031062;28;20049;-72
2023/08/14 15:13:51;;;;;;;5.50;1.77;;;;;;;32.17;35.49;100988.75;5021641;28;20036;-72
2023/08/14 15:16:16;;;;;;;4.83;1.80;;;;;;;32.24;37.58;100980.50;5033601;28;20029;-73
2023/08/14 15:18:41;;;;;;;5.80;1.98;;;;;;;32.18;37.22;100987.59;5019701;28;20307;-70
2023/08/14 15:21:07;;;;;;;6.40;1.90;;;;;;;32.43;35.48;100976.03;5013676;28;20046;-70
2023/08/14 15:23:32;;;;;;;5.38;1.80;;;;;;;32.39;34.06;100986.38;5013508;28;20061;-67
2023/08/14 15:25:57;;;;;;;4.57;1.70;;;;;;;32.19;34.36;100994.81;5030030;28;20032;-71
2023/08/14 15:28:22;;;;;;;5.22;1.60;;;;;;;32.12;34.94;101000.25;5033848;28;20264;-69
2023/08/14 15:30:48;;;;;;;4.68;1.90;;;;;;;32.00;33.86;100997.59;5015504;28;20017;-68
2023/08/14 15:33:13;;;;;;;5.95;1.73;;;;;;;31.75;36.21;101003.44;5023965;28;20021;-68
2023/08/14 15:35:39;;;;;;;5.93;1.60;;;;;;;31.80;36.50;101012.38;5013848;28;20449;-68
2023/08/14 15:38:04;;;;;;;5.13;1.95;;;;;;;32.07;34.02;101014.50;5029855;28;20299;-72
2023/08/14 15:40:30;;;;;;;4.70;1.67;;;;;;;32.04;33.89;101016.06;5043388;28;20021;-69
2023/08/14 15:42:56;;;;;;;5.95;1.60;;;;;;;32.08;34.23;101018.94;5053203;28;20452;-68
2023/08/14 15:45:21;;;;;;;4.80;1.77;;;;;;;31.97;34.06;101018.72;5016965;28;20038;-68
2023/08/14 15:47:47;;;;;;;3.67;1.70;;;;;;;31.74;36.53;101018.63;5023732;28;20036;-69
2023/08/14 15:50:12;;;;;;;5.18;1.85;;;;;;;31.67;35.81;101015.66;5028254;28;20284;-68
2023/08/14 15:52:38;;;;;;;4.93;1.60;;;;;;;31.30;36.70;101010.38;5022151;28;20036;-68
2023/08/14 15:55:04;;;;;;;5.55;1.85;;;;;;;31.30;37.07;101016.81;5032518;28;20029;-68
2023/08/14 15:57:29;;;;;;;4.40;1.90;;;;;;;31.28;38.74;101019.97;5032541;28;20124;-68
2023/08/14 15:59:54;;;;;;;4.93;1.60;;;;;;;31.20;37.91;101018.16;5032817;28;20063;-68
2023/08/14 16:02:21;;;;;;;4.55;1.70;;;;;;;31.21;36.30;101017.00;5012844;28;20034;-68
